Time;durP1;ratioP1;P1;durP2;ratioP2;P2;SDS_P1;SDS_P2;PMS_P1;PMS_P2;Temp;Humidity;BMP_temperature;BMP_pressure;BME280_temperature;BME280_humidity;BME280_pressure;Samples;Min_cycle;Max_cycle;Signal;HPM_P1;HPM_P2
2023/06/15 00:01:14;;;;;;;;;;;;;;;14.07;90.41;95779.34;5062418;28;19925;-70
2023/06/15 00:03:42;;;;;;;;;;;;;;;14.15;89.47;95779.59;5058500;28;19925;-69
2023/06/15 00:06:08;;;;;;;;;;;;;;;14.15;89.64;95782.19;5064846;28;19994;-69
2023/06/15 00:08:36;;;;;;;;;;;;;;;14.03;89.62;95776.16;5070384;28;19932;-69
2023/06/15 00:11:02;;;;;;;;;;;;;;;13.94;91.41;95777.69;5071013;28;19943;-69
2023/06/15 00:13:28;;;;;;;;;;;;;;;14.00;91.16;95785.03;5062114;28;19924;-70
2023/06/15 00:15:55;;;;;;;;;;;;;;;14.10;89.97;95787.75;5070698;28;19932;-69
2023/06/15 00:18:21;;;;;;;;;;;;;;;14.07;90.83;95784.56;5070887;28;19925;-69
2023/06/15 00:20:47;;;;;;;;;;;;;;;14.06;90.89;95782.91;5068988;28;19948;-69
2023/06/15 00:23:17;;;;;;;;;;;;;;;14.14;90.54;95790.97;5070530;28;19936;-69
2023/06/15 00:25:44;;;;;;;;;;;;;;;14.17;90.44;95791.56;5071308;28;20382;-69
2023/06/15 00:28:11;;;;;;;;;;;;;;;14.07;89.79;95789.78;5070759;28;19924;-69
2023/06/15 00:30:37;;;;;;;;;;;;;;;13.94;91.45;95792.47;5065600;28;20753;-69
2023/06/15 00:33:03;;;;;;;;;;;;;;;13.70;92.14;95793.38;5069883;28;20348;-69
2023/06/15 00:35:30;;;;;;;;;;;;;;;13.77;92.12;95794.59;5066649;28;19932;-69
2023/06/15 00:37:56;;;;;;;;;;;;;;;13.76;92.75;95794.72;5066875;28;19928;-69
2023/06/15 00:40:23;;;;;;;;;;;;;;;13.92;91.81;95791.78;5068012;28;19928;-70
2023/06/15 00:42:50;;;;;;;;;;;;;;;14.11;90.59;95797.22;5064026;28;20336;-70
2023/06/15 00:45:17;;;;;;;;;;;;;;;14.19;90.18;95797.47;5069483;28;19932;-70
2023/06/15 00:47:43;;;;;;;;;;;;;;;14.27;89.83;95799.47;5068399;28;19928;-70
2023/06/15 00:50:10;;;;;;;;;;;;;;;14.38;89.30;95803.88;5061209;28;19978;-70
2023/06/15 00:52:37;;;;;;;;;;;;;;;13.88;90.39;95800.75;5068994;28;19929;-70
2023/06/15 00:55:04;;;;;;;;;;;;;;;14.11;91.79;95801.63;5067685;28;20011;-70
2023/06/15 00:57:32;;;;;;;;;;;;;;;14.11;90.72;95799.00;5070738;28;20011;-71
2023/06/15 01:00:00;;;;;;;;;;;;;;;13.89;89.63;95792.81;5064517;28;19925;-70
2023/06/15 01:02:27;;;;;;;;;;;;;;;13.85;91.39;95806.19;5071280;28;19924;-70
2023/06/15 01:04:53;;;;;;;;;;;;;;;14.01;90.85;95796.25;5076213;28;19928;-70
2023/06/15 01:07:20;;;;;;;;;;;;;;;13.96;90.22;95794.00;5068237;28;19924;-70
2023/06/15 01:09:48;;;;;;;;;;;;;;;14.14;88.92;95801.38;5074413;28;20346;-70
2023/06/15 01:12:17;;;;;;;;;;;;;;;14.09;88.39;95796.53;5070593;28;19993;-69
2023/06/15 01:14:43;;;;;;;;;;;;;;;13.99;88.64;95790.38;5073697;28;19968;-69
2023/06/15 01:17:13;;;;;;;;;;;;;;;13.76;90.19;95790.31;5071111;28;19928;-69
2023/06/15 01:19:42;;;;;;;;;;;;;;;13.54;91.68;95796.31;5073715;28;19925;-69
2023/06/15 01:22:14;;;;;;;;;;;;;;;13.38;94.23;95794.94;5073434;28;20385;-69
2023/06/15 01:24:45;;;;;;;;;;;;;;;13.34;93.40;95798.69;5079907;28;19929;-69
2023/06/15 01:27:13;;;;;;;;;;;;;;;13.11;96.68;95795.97;5069692;28;20386;-69
2023/06/15 01:29:41;;;;;;;;;;;;;;;13.11;100.00;95782.16;5073567;28;19925;-69
2023/06/15 01:32:08;;;;;;;;;;;;;;;13.25;100.00;95787.22;5073315;28;19928;-69
2023/06/15 01:34:34;;;;;;;;;;;;;;;13.44;100.00;95791.88;5073266;28;20338;-69
2023/06/15 01:37:00;;;;;;;;;;;;;;;13.58;99.86;95790.88;5070711;28;19925;-70
2023/06/15 01:39:27;;;;;;;;;;;;;;;13.35;100.00;95787.34;5069425;28;19925;-69
2023/06/15 01:41:53;;;;;;;;;;;;;;;13.38;100.00;95787.13;5070361;28;19982;-70
2023/06/15 01:44:23;;;;;;;;;;;;;;;13.54;100.00;95791.09;5070868;28;21307;-70
2023/06/15 01:46:49;;;;;;;;;;;;;;;13.66;98.85;95796.31;5062872;28;19947;-70
2023/06/15 01:49:16;;;;;;;;;;;;;;;13.43;100.00;95785.03;5070409;28;19947;-70
2023/06/15 01:51:42;;;;;;;;;;;;;;;13.55;99.97;95792.75;5072922;28;19944;-70
2023/06/15 01:54:08;;;;;;;;;;;;;;;13.59;99.22;95789.91;5071488;28;19929;-70
2023/06/15 01:56:35;;;;;;;;;;;;;;;13.59;100.00;95785.53;5069284;28;19931;-70
2023/06/15 01:59:01;;;;;;;;;;;;;;;13.63;99.08;95784.38;5061655;28;19955;-70
2023/06/15 02:01:28;;;;;;;;;;;;;;;13.70;97.24;95787.34;5064875;28;19997;-70
2023/06/15 02:03:55;;;;;;;;;;;;;;;13.58;99.58;95783.88;5066385;28;19928;-70
2023/06/15 02:06:21;;;;;;;;;;;;;;;13.56;99.99;95780.56;5069482;28;21417;-71
2023/06/15 02:08:47;;;;;;;;;;;;;;;13.58;99.17;95786.50;5068531;28;19933;-71
2023/06/15 02:11:15;;;;;;;;;;;;;;;13.59;99.31;95785.53;5062330;28;19932;-71
2023/06/15 02:13:41;;;;;;;;;;;;;;;13.58;98.50;95788.28;5070500;28;20270;-70
2023/06/15 02:16:09;;;;;;;;;;;;;;;13.48;100.00;95793.31;5070122;28;19974;-70
2023/06/15 02:18:37;;;;;;;;;;;;;;;13.43;100.00;95798.03;5069878;28;20317;-69
2023/06/15 02:21:03;;;;;;;;;;;;;;;13.50;99.77;95794.03;5067561;28;19978;-69
2023/06/15 02:23:32;;;;;;;;;;;;;;;13.38;99.92;95789.72;5066624;28;19928;-69
2023/06/15 02:25:59;;;;;;;;;;;;;;;13.32;99.59;95802.25;5069447;28;19925;-70
2023/06/15 02:28:25;;;;;;;;;;;;;;;13.24;100.00;95806.38;5065534;28;20402;-69
2023/06/15 02:30:51;;;;;;;;;;;;;;;13.15;100.00;95797.41;5061029;28;20337;-69
2023/06/15 02:33:19;;;;;;;;;;;;;;;13.18;100.00;95797.19;5063521;28;19929;-70
2023/06/15 02:35:46;;;;;;;;;;;;;;;13.21;100.00;95807.38;5058712;28;20123;-70
2023/06/15 02:38:13;;;;;;;;;;;;;;;13.27;100.00;95806.13;5071780;28;20432;-69
2023/06/15 02:40:39;;;;;;;;;;;;;;;13.31;100.00;95805.81;5067663;28;20349;-70
2023/06/15 02:43:05;;;;;;;;;;;;;;;13.38;100.00;95805.34;5067043;28;19933;-69
2023/06/15 02:45:31;;;;;;;;;;;;;;;13.43;100.00;95806.66;5071945;28;19928;-70
2023/06/15 02:47:58;;;;;;;;;;;;;;;13.37;100.00;95806.28;5071548;28;19929;-70
2023/06/15 02:50:25;;;;;;;;;;;;;;;13.29;100.00;95807.66;5070784;28;19928;-70
2023/06/15 02:52:53;;;;;;;;;;;;;;;13.31;100.00;95807.53;5071755;28;19928;-70
2023/06/15 02:55:19;;;;;;;;;;;;;;;13.30;100.00;95805.91;5059304;28;19983;-69
2023/06/15 02:57:45;;;;;;;;;;;;;;;13.32;100.00;95804.03;5071119;28;19963;-70
2023/06/15 03:00:13;;;;;;;;;;;;;;;13.36;100.00;95800.25;5071529;28;19967;-70
2023/06/15 03:02:43;;;;;;;;;;;;;;;13.44;100.00;95812.69;5069196;28;19932;-70
2023/06/15 03:05:09;;;;;;;;;;;;;;;13.34;100.00;95820.34;5072279;28;19982;-70
2023/06/15 03:07:35;;;;;;;;;;;;;;;13.15;100.00;95813.00;5073426;28;19933;-70
2023/06/15 03:10:03;;;;;;;;;;;;;;;12.87;100.00;95815.91;5067022;28;19924;-68
2023/06/15 03:12:29;;;;;;;;;;;;;;;12.88;100.00;95817.59;5067572;28;19974;-69
2023/06/15 03:14:56;;;;;;;;;;;;;;;12.65;100.00;95822.66;5062784;28;19932;-70
2023/06/15 03:17:24;;;;;;;;;;;;;;;12.70;100.00;95817.94;5070104;28;19932;-69
2023/06/15 03:19:51;;;;;;;;;;;;;;;12.62;100.00;95822.88;5066889;28;20086;-69
2023/06/15 03:22:18;;;;;;;;;;;;;;;12.48;100.00;95820.41;5068224;28;19935;-69
2023/06/15 03:24:45;;;;;;;;;;;;;;;12.45;100.00;95818.00;5065448;28;19924;-70
2023/06/15 03:27:13;;;;;;;;;;;;;;;12.39;100.00;95821.03;5070851;28;19925;-71
2023/06/15 03:29:39;;;;;;;;;;;;;;;12.41;100.00;95817.38;5078820;28;19978;-71
2023/06/15 03:32:06;;;;;;;;;;;;;;;12.39;100.00;95818.44;5069508;28;19929;-72
2023/06/15 03:34:32;;;;;;;;;;;;;;;12.45;100.00;95823.19;5071167;28;20390;-73
2023/06/15 03:36:59;;;;;;;;;;;;;;;12.59;100.00;95823.06;5068310;28;19928;-72
2023/06/15 03:39:25;;;;;;;;;;;;;;;12.77;100.00;95826.97;5070884;28;19932;-73
2023/06/15 03:41:51;;;;;;;;;;;;;;;12.90;100.00;95826.09;5071002;28;20015;-73
2023/06/15 03:44:19;;;;;;;;;;;;;;;12.99;100.00;95828.06;5062755;28;20361;-74
2023/06/15 03:46:46;;;;;;;;;;;;;;;13.07;100.00;95828.34;5063632;28;19998;-73
2023/06/15 03:49:13;;;;;;;;;;;;;;;13.15;100.00;95822.59;5070890;28;19925;-73
2023/06/15 03:51:39;;;;;;;;;;;;;;;13.25;100.00;95827.03;5068360;28;19998;-73
2023/06/15 03:54:05;;;;;;;;;;;;;;;13.30;100.00;95827.53;5071075;28;19936;-73
2023/06/15 03:56:32;;;;;;;;;;;;;;;13.33;100.00;95834.28;5067097;28;20015;-73
2023/06/15 03:58:58;;;;;;;;;;;;;;;13.36;100.00;95830.66;5065402;28;20004;-72
2023/06/15 04:01:26;;;;;;;;;;;;;;;13.42;100.00;95832.78;5068524;28;19924;-72
2023/06/15 04:03:52;;;;;;;;;;;;;;;13.40;100.00;95837.28;5070496;28;20436;-72
2023/06/15 04:06:21;;;;;;;;;;;;;;;13.35;100.00;95836.78;5070375;28;19950;-71
2023/06/15 04:08:47;;;;;;;;;;;;;;;13.32;100.00;95836.06;5070468;28;19937;-71
2023/06/15 04:11:14;;;;;;;;;;;;;;;13.26;100.00;95835.69;5070463;28;19925;-72
2023/06/15 04:13:41;;;;;;;;;;;;;;;12.99;100.00;95849.69;5070099;28;20370;-72
2023/06/15 04:16:07;;;;;;;;;;;;;;;12.84;100.00;95848.19;5073140;28;20663;-71
2023/06/15 04:18:34;;;;;;;;;;;;;;;12.69;100.00;95851.84;5070642;28;20006;-71
2023/06/15 04:21:01;;;;;;;;;;;;;;;12.65;100.00;95861.63;5070816;28;19929;-72
2023/06/15 04:23:27;;;;;;;;;;;;;;;12.43;100.00;95854.50;5070170;28;19970;-72
2023/06/15 04:25:53;;;;;;;;;;;;;;;12.44;100.00;95858.75;5070165;28;20364;-73
2023/06/15 04:28:20;;;;;;;;;;;;;;;12.47;100.00;95862.91;5070404;28;20019;-73
2023/06/15 04:30:54;;;;;;;;;;;;;;;12.55;100.00;95865.78;5074276;28;20275;-71
2023/06/15 04:33:22;;;;;;;;;;;;;;;12.57;100.00;95862.16;5072781;28;19932;-73
2023/06/15 04:35:50;;;;;;;;;;;;;;;12.59;100.00;95868.06;5074649;28;19929;-73
2023/06/15 04:38:16;;;;;;;;;;;;;;;12.68;100.00;95870.97;5072103;28;19955;-73
2023/06/15 04:40:42;;;;;;;;;;;;;;;12.77;100.00;95873.75;5072972;28;19932;-72
2023/06/15 04:43:09;;;;;;;;;;;;;;;12.89;100.00;95873.84;5070484;28;19964;-73
2023/06/15 04:45:35;;;;;;;;;;;;;;;12.99;100.00;95873.09;5073009;28;19929;-72
2023/06/15 04:48:01;;;;;;;;;;;;;;;13.11;100.00;95875.75;5070237;28;19925;-74
2023/06/15 04:50:29;;;;;;;;;;;;;;;13.07;100.00;95869.94;5071523;28;19932;-72
2023/06/15 04:52:57;;;;;;;;;;;;;;;13.05;100.00;95875.25;5064103;28;19997;-72
2023/06/15 04:55:23;;;;;;;;;;;;;;;13.07;100.00;95877.75;5081773;28;19931;-72
2023/06/15 04:57:50;;;;;;;;;;;;;;;13.12;100.00;95882.59;5072283;28;19932;-72
2023/06/15 05:00:16;;;;;;;;;;;;;;;13.11;100.00;95883.56;5074305;28;20393;-71
2023/06/15 05:02:43;;;;;;;;;;;;;;;12.95;100.00;95889.00;5073539;28;19932;-70
2023/06/15 05:05:09;;;;;;;;;;;;;;;12.86;100.00;95885.28;5074019;28;19924;-70
2023/06/15 05:07:35;;;;;;;;;;;;;;;12.83;100.00;95880.31;5074057;28;19975;-71
2023/06/15 05:10:03;;;;;;;;;;;;;;;12.79;100.00;95887.50;5073981;28;20626;-70
2023/06/15 05:12:30;;;;;;;;;;;;;;;12.87;100.00;95886.09;5073629;28;19925;-70
2023/06/15 05:14:56;;;;;;;;;;;;;;;12.90;100.00;95880.69;5073887;28;19928;-70
2023/06/15 05:17:23;;;;;;;;;;;;;;;13.00;100.00;95884.31;5072943;28;19928;-70
2023/06/15 05:19:49;;;;;;;;;;;;;;;13.02;100.00;95885.88;5073852;28;20382;-70
2023/06/15 05:22:15;;;;;;;;;;;;;;;13.09;100.00;95886.28;5073363;28;19947;-70
2023/06/15 05:24:41;;;;;;;;;;;;;;;13.11;100.00;95892.19;5070269;28;19937;-71
2023/06/15 05:27:09;;;;;;;;;;;;;;;13.10;100.00;95890.53;5071863;28;19929;-71
2023/06/15 05:29:36;;;;;;;;;;;;;;;13.11;100.00;95886.97;5072860;28;20366;-70
2023/06/15 05:32:02;;;;;;;;;;;;;;;13.11;100.00;95894.78;5073527;28;20365;-71
2023/06/15 05:34:29;;;;;;;;;;;;;;;13.00;100.00;95892.09;5073256;28;19932;-70
2023/06/15 05:36:55;;;;;;;;;;;;;;;13.02;100.00;95893.69;5070578;28;20077;-71
2023/06/15 05:39:21;;;;;;;;;;;;;;;13.07;100.00;95898.53;5073357;28;19928;-71
2023/06/15 05:41:47;;;;;;;;;;;;;;;13.13;100.00;95897.28;5067142;28;19951;-71
2023/06/15 05:44:15;;;;;;;;;;;;;;;13.29;100.00;95901.31;5072362;28;19924;-71
2023/06/15 05:46:42;;;;;;;;;;;;;;;13.64;100.00;95892.72;5069730;28;19932;-71
2023/06/15 05:49:09;;;;;;;;;;;;;;;13.78;100.00;95891.72;5072038;28;20402;-70
2023/06/15 05:51:35;;;;;;;;;;;;;;;13.98;100.00;95893.69;5069984;28;19924;-71
2023/06/15 05:54:02;;;;;;;;;;;;;;;13.91;100.00;95900.28;5072610;28;19924;-70
2023/06/15 05:56:30;;;;;;;;;;;;;;;14.04;100.00;95900.19;5072391;28;19957;-71
2023/06/15 05:58:56;;;;;;;;;;;;;;;14.02;100.00;95909.91;5072448;28;19928;-70
2023/06/15 06:01:23;;;;;;;;;;;;;;;14.41;100.00;95900.03;5072083;28;19928;-71
2023/06/15 06:03:50;;;;;;;;;;;;;;;14.77;100.00;95901.66;5069460;28;19931;-71
2023/06/15 06:06:16;;;;;;;;;;;;;;;15.07;100.00;95901.03;5071860;28;19936;-71
2023/06/15 06:08:42;;;;;;;;;;;;;;;15.09;95.32;95900.91;5069066;28;19932;-70
2023/06/15 06:11:09;;;;;;;;;;;;;;;15.07;95.04;95905.41;5072581;28;19925;-70
2023/06/15 06:13:36;;;;;;;;;;;;;;;15.11;95.66;95906.84;5070897;28;20350;-70
2023/06/15 06:16:02;;;;;;;;;;;;;;;15.30;94.77;95916.66;5072554;28;19948;-70
2023/06/15 06:18:30;;;;;;;;;;;;;;;15.37;96.83;95913.44;5072557;28;20390;-70
2023/06/15 06:20:56;;;;;;;;;;;;;;;15.88;99.21;95914.63;5072649;28;19928;-70
2023/06/15 06:23:22;;;;;;;;;;;;;;;15.54;92.72;95914.69;5072515;28;19929;-70
2023/06/15 06:25:48;;;;;;;;;;;;;;;15.58;90.19;95912.69;5071906;28;19928;-70
2023/06/15 06:28:15;;;;;;;;;;;;;;;15.86;88.39;95913.91;5072454;28;20385;-70
2023/06/15 06:30:41;;;;;;;;;;;;;;;16.13;88.71;95919.47;5072652;28;20326;-69
2023/06/15 06:33:07;;;;;;;;;;;;;;;16.49;86.00;95912.13;5070269;28;20360;-69
2023/06/15 06:35:35;;;;;;;;;;;;;;;17.03;88.47;95913.66;5071804;28;19933;-69
2023/06/15 06:38:01;;;;;;;;;;;;;;;17.39;80.53;95921.88;5069797;28;20002;-69
2023/06/15 06:40:28;;;;;;;;;;;;;;;17.67;81.63;95915.88;5072060;28;19940;-69
2023/06/15 06:42:54;;;;;;;;;;;;;;;17.93;80.59;95917.16;5071395;28;20019;-69
2023/06/15 06:45:21;;;;;;;;;;;;;;;17.58;80.20;95921.09;5071856;28;19924;-70
2023/06/15 06:47:47;;;;;;;;;;;;;;;17.66;80.84;95924.69;5071464;28;19932;-70
2023/06/15 06:50:13;;;;;;;;;;;;;;;17.72;80.14;95914.63;5072014;28;19932;-70
2023/06/15 06:52:42;;;;;;;;;;;;;;;17.79;80.25;95919.22;5068331;28;19933;-70
2023/06/15 06:55:09;;;;;;;;;;;;;;;18.37;84.27;95918.38;5071768;28;19928;-70
2023/06/15 06:57:35;;;;;;;;;;;;;;;18.83;77.01;95927.25;5068892;28;19999;-70
2023/06/15 07:00:02;;;;;;;;;;;;;;;19.12;73.58;95923.69;5072087;28;19925;-70
2023/06/15 07:02:28;;;;;;;;;;;;;;;19.38;71.71;95929.09;5068751;28;19975;-70
2023/06/15 07:04:54;;;;;;;;;;;;;;;19.49;69.69;95927.09;5071718;28;19928;-70
2023/06/15 07:07:21;;;;;;;;;;;;;;;19.78;66.88;95921.69;5071229;28;19924;-70
2023/06/15 07:09:48;;;;;;;;;;;;;;;19.83;71.58;95923.84;5070006;28;20013;-70
2023/06/15 07:12:15;;;;;;;;;;;;;;;19.91;67.49;95926.59;5071850;28;19932;-70
2023/06/15 07:14:41;;;;;;;;;;;;;;;20.11;68.80;95923.78;5061038;28;19970;-70
2023/06/15 07:17:07;;;;;;;;;;;;;;;20.32;70.67;95916.41;5071364;28;19936;-70
2023/06/15 07:19:33;;;;;;;;;;;;;;;20.42;67.48;95921.56;5069205;28;19928;-70
2023/06/15 07:22:00;;;;;;;;;;;;;;;20.63;65.18;95914.19;5071093;28;19924;-70
2023/06/15 07:24:26;;;;;;;;;;;;;;;20.73;63.70;95922.00;5070092;28;19978;-69
2023/06/15 07:26:53;;;;;;;;;;;;;;;20.87;68.28;95924.03;5067938;28;19935;-70
2023/06/15 07:29:20;;;;;;;;;;;;;;;20.91;63.96;95921.91;5070986;28;19925;-70
2023/06/15 07:31:46;;;;;;;;;;;;;;;21.05;63.22;95920.50;5065514;28;19928;-69
2023/06/15 07:34:13;;;;;;;;;;;;;;;21.10;61.04;95920.84;5071178;28;20015;-70
2023/06/15 07:36:39;;;;;;;;;;;;;;;21.26;61.50;95919.13;5069283;28;19925;-69
2023/06/15 07:39:05;;;;;;;;;;;;;;;20.71;59.40;95916.03;5071302;28;19924;-70
2023/06/15 07:41:31;;;;;;;;;;;;;;;21.27;63.75;95933.94;5069886;28;19932;-70
2023/06/15 07:44:00;;;;;;;;;;;;;;;21.44;63.32;95926.97;5070857;28;19933;-70
2023/06/15 07:46:26;;;;;;;;;;;;;;;21.55;58.89;95922.38;5066580;28;20418;-69
2023/06/15 07:48:52;;;;;;;;;;;;;;;21.67;59.18;95921.91;5073829;28;19932;-70
2023/06/15 07:51:18;;;;;;;;;;;;;;;21.17;61.48;95922.72;5069181;28;19928;-70
2023/06/15 07:53:46;;;;;;;;;;;;;;;21.63;59.03;95925.84;5070178;28;19924;-70
2023/06/15 07:56:12;;;;;;;;;;;;;;;21.75;55.67;95921.94;5070124;28;19929;-70
2023/06/15 07:58:39;;;;;;;;;;;;;;;21.47;55.65;95921.38;5070060;28;20366;-71
2023/06/15 08:01:06;;;;;;;;;;;;;;;21.65;60.27;95928.31;5070530;28;20015;-70
2023/06/15 08:03:33;;;;;;;;;;;;;;;21.77;59.60;95923.56;5069593;28;20386;-71
2023/06/15 08:05:59;;;;;;;;;;;;;;;22.03;56.90;95912.94;5070425;28;20359;-71
2023/06/15 08:08:26;;;;;;;;;;;;;;;22.17;58.35;95918.41;5069597;28;20026;-70
2023/06/15 08:10:52;;;;;;;;;;;;;;;21.81;54.88;95917.84;5070141;28;20413;-70
2023/06/15 08:13:20;;;;;;;;;;;;;;;21.94;58.10;95919.97;5067512;28;19994;-70
2023/06/15 08:15:46;;;;;;;;;;;;;;;21.64;51.35;95929.31;5069764;28;19925;-70
2023/06/15 08:18:14;;;;;;;;;;;;;;;21.56;54.57;95927.47;5070766;28;19933;-69
2023/06/15 08:20:40;;;;;;;;;;;;;;;22.07;52.79;95922.16;5070853;28;20396;-70
2023/06/15 08:23:06;;;;;;;;;;;;;;;22.23;51.83;95922.19;5070262;28;19928;-69
2023/06/15 08:25:34;;;;;;;;;;;;;;;22.09;50.68;95917.53;5069814;28;19924;-70
2023/06/15 08:28:00;;;;;;;;;;;;;;;22.48;52.51;95915.09;5069386;28;19928;-69
2023/06/15 08:30:27;;;;;;;;;;;;;;;22.56;52.82;95916.91;5070936;28;19978;-70
2023/06/15 08:32:53;;;;;;;;;;;;;;;22.42;51.04;95923.66;5068865;28;19925;-70
2023/06/15 08:35:20;;;;;;;;;;;;;;;22.49;50.89;95915.91;5070081;28;19955;-70
2023/06/15 08:37:47;;;;;;;;;;;;;;;22.48;52.70;95916.91;5067948;28;20631;-70
2023/06/15 08:40:13;;;;;;;;;;;;;;;22.53;52.15;95920.69;5070306;28;20349;-71
2023/06/15 08:42:40;;;;;;;;;;;;;;;22.62;51.00;95914.41;5070083;28;19924;-71
2023/06/15 08:45:07;;;;;;;;;;;;;;;22.89;53.75;95920.31;5070529;28;19928;-70
2023/06/15 08:47:34;;;;;;;;;;;;;;;23.13;51.04;95912.31;5071817;28;19931;-70
2023/06/15 08:50:01;;;;;;;;;;;;;;;23.10;48.44;95914.47;5070790;28;20011;-70
2023/06/15 08:52:31;;;;;;;;;;;;;;;23.03;51.75;95918.81;5067384;28;19972;-70
2023/06/15 08:54:58;;;;;;;;;;;;;;;22.99;47.04;95913.06;5068909;28;19932;-71
2023/06/15 08:57:25;;;;;;;;;;;;;;;23.26;51.27;95919.72;5070040;28;19931;-71
2023/06/15 08:59:52;;;;;;;;;;;;;;;23.25;47.22;95910.16;5070022;28;19997;-71
2023/06/15 09:02:20;;;;;;;;;;;;;;;23.36;51.33;95912.41;5069341;28;19924;-70
2023/06/15 09:04:47;;;;;;;;;;;;;;;23.57;48.36;95918.91;5067477;28;20462;-70
2023/06/15 09:07:13;;;;;;;;;;;;;;;23.56;48.75;95914.63;5070531;28;20026;-69
2023/06/15 09:10:01;;;;;;;;;;;;;;;23.66;48.52;95918.75;5069781;28;19928;-70
2023/06/15 09:12:27;;;;;;;;;;;;;;;23.63;53.65;95915.59;5069575;28;20281;-70
2023/06/15 09:14:53;;;;;;;;;;;;;;;23.65;47.83;95918.88;5070138;28;19925;-70
2023/06/15 09:17:27;;;;;;;;;;;;;;;23.72;50.52;95914.56;5065954;28;19925;-69
2023/06/15 09:19:53;;;;;;;;;;;;;;;23.68;48.39;95910.63;5073860;28;20372;-70
2023/06/15 09:22:19;;;;;;;;;;;;;;;23.73;47.61;95924.16;5073506;28;19932;-69
2023/06/15 09:24:47;;;;;;;;;;;;;;;23.94;47.77;95917.41;5073579;28;19925;-70
2023/06/15 09:27:17;;;;;;;;;;;;;;;23.56;52.29;95917.28;5073041;28;19924;-70
2023/06/15 09:30:00;;;;;;;;;;;;;;;23.26;47.28;95919.72;5066507;28;19955;-70
2023/06/15 09:32:28;;;;;;;;;;;;;;;23.63;48.78;95926.16;5072397;28;20288;-70
2023/06/15 09:34:57;;;;;;;;;;;;;;;24.01;47.68;95918.34;5072754;28;19993;-70
2023/06/15 09:37:24;;;;;;;;;;;;;;;23.87;43.06;95910.16;5073253;28;20398;-70
2023/06/15 09:39:52;;;;;;;;;;;;;;;23.60;43.50;95923.84;5073229;28;20386;-70
2023/06/15 09:42:18;;;;;;;;;;;;;;;23.77;45.40;95929.91;5072104;28;19935;-70
2023/06/15 09:44:46;;;;;;;;;;;;;;;23.43;40.55;95910.75;5072742;28;19928;-69
2023/06/15 09:47:15;;;;;;;;;;;;;;;23.94;43.92;95914.75;5073302;28;19928;-69
2023/06/15 09:49:44;;;;;;;;;;;;;;;23.93;40.36;95913.13;5073528;28;20040;-70
2023/06/15 09:52:12;;;;;;;;;;;;;;;24.10;44.03;95912.00;5065517;28;19929;-70
2023/06/15 09:54:39;;;;;;;;;;;;;;;23.99;43.21;95925.63;5071430;28;20031;-70
2023/06/15 09:57:08;;;;;;;;;;;;;;;23.89;48.41;95915.31;5072438;28;20063;-70
2023/06/15 09:59:34;;;;;;;;;;;;;;;24.23;41.27;95919.34;5072589;28;19994;-70
2023/06/15 10:02:01;;;;;;;;;;;;;;;24.43;42.23;95917.88;5073348;28;19928;-69
2023/06/15 10:04:30;;;;;;;;;;;;;;;24.28;39.95;95917.81;5069995;28;19932;-70
2023/06/15 10:07:00;;;;;;;;;;;;;;;24.12;39.94;95926.69;5066795;28;19978;-70
2023/06/15 10:09:28;;;;;;;;;;;;;;;24.39;41.66;95925.34;5068427;28;19967;-69
2023/06/15 10:11:56;;;;;;;;;;;;;;;24.63;40.79;95918.22;5065997;28;19951;-70
2023/06/15 10:14:27;;;;;;;;;;;;;;;24.52;39.70;95926.59;5068066;28;19935;-70
2023/06/15 10:16:57;;;;;;;;;;;;;;;23.80;38.80;95919.78;5073437;28;19930;-70
2023/06/15 10:19:25;;;;;;;;;;;;;;;23.53;41.42;95917.63;5068139;28;19925;-70
2023/06/15 10:21:52;;;;;;;;;;;;;;;22.89;42.68;95923.75;5072592;28;19932;-70
2023/06/15 10:24:20;;;;;;;;;;;;;;;22.60;42.96;95923.50;5072243;28;19929;-70
2023/06/15 10:26:46;;;;;;;;;;;;;;;22.45;44.22;95918.06;5071925;28;19998;-70
2023/06/15 10:29:15;;;;;;;;;;;;;;;22.40;44.33;95929.13;5072430;28;20015;-70
2023/06/15 10:31:46;;;;;;;;;;;;;;;22.44;46.60;95922.53;5072326;28;19981;-70
2023/06/15 10:34:16;;;;;;;;;;;;;;;22.50;47.41;95917.56;5071949;28;19928;-70
2023/06/15 10:36:45;;;;;;;;;;;;;;;22.31;45.79;95924.81;5066785;28;19947;-70
2023/06/15 10:39:15;;;;;;;;;;;;;;;22.41;46.22;95930.75;5071827;28;19924;-70
2023/06/15 10:41:41;;;;;;;;;;;;;;;22.41;45.41;95927.31;5071881;28;19951;-70
2023/06/15 10:44:08;;;;;;;;;;;;;;;22.22;45.59;95923.19;5070202;28;19932;-70
2023/06/15 10:46:35;;;;;;;;;;;;;;;22.41;45.84;95932.56;5069631;28;19924;-70
2023/06/15 10:49:06;;;;;;;;;;;;;;;22.43;45.28;95926.16;5067970;28;20005;-70
2023/06/15 10:51:33;;;;;;;;;;;;;;;22.46;43.13;95925.78;5068240;28;20271;-70
2023/06/15 10:54:02;;;;;;;;;;;;;;;22.44;44.66;95929.63;5069949;28;20440;-70
2023/06/15 10:56:28;;;;;;;;;;;;;;;22.62;43.48;95926.75;5071552;28;19935;-70
2023/06/15 10:58:55;;;;;;;;;;;;;;;23.09;50.77;95924.22;5070017;28;19978;-70
2023/06/15 11:01:23;;;;;;;;;;;;;;;23.03;36.40;95924.94;5064718;28;20584;-70
2023/06/15 11:03:49;;;;;;;;;;;;;;;23.58;45.16;95918.75;5069876;28;20470;-70
2023/06/15 11:06:17;;;;;;;;;;;;;;;24.04;43.13;95915.38;5071374;28;20023;-70
2023/06/15 11:08:47;;;;;;;;;;;;;;;23.70;42.22;95916.56;5068296;28;20329;-70
2023/06/15 11:11:14;;;;;;;;;;;;;;;23.56;38.64;95920.75;5066394;28;20414;-70
2023/06/15 11:13:56;;;;;;;;;;;;;;;23.26;37.20;95918.91;5063646;28;19924;-70
2023/06/15 11:16:27;;;;;;;;;;;;;;;23.27;41.11;95926.66;5065839;28;19928;-70
2023/06/15 11:19:20;;;;;;;;;;;;;;;23.83;38.67;95927.38;5070766;28;20027;-70
2023/06/15 11:21:56;;;;;;;;;;;;;;;23.68;37.56;95929.13;5070714;28;20007;-70
2023/06/15 11:24:23;;;;;;;;;;;;;;;23.81;40.27;95923.28;5070180;28;19924;-70
2023/06/15 11:26:50;;;;;;;;;;;;;;;23.45;40.73;95929.06;5068331;28;20310;-69
2023/06/15 11:29:22;;;;;;;;;;;;;;;23.46;39.41;95927.22;5070579;28;20349;-70
2023/06/15 11:31:48;;;;;;;;;;;;;;;23.30;38.58;95926.31;5067249;28;20421;-70
2023/06/15 11:34:15;;;;;;;;;;;;;;;23.21;39.48;95918.56;5070819;28;19974;-70
2023/06/15 11:36:41;;;;;;;;;;;;;;;22.80;39.84;95914.19;5068350;28;19935;-70
2023/06/15 11:39:17;;;;;;;;;;;;;;;22.57;39.46;95919.34;5069936;28;19935;-70
2023/06/15 11:41:47;;;;;;;;;;;;;;;22.56;39.65;95903.69;5062482;28;19932;-70
2023/06/15 11:44:13;;;;;;;;;;;;;;;22.98;42.73;95916.66;5069183;28;19932;-70
2023/06/15 11:46:40;;;;;;;;;;;;;;;22.88;38.90;95908.91;5070621;28;19929;-69
2023/06/15 11:49:10;;;;;;;;;;;;;;;22.57;38.06;95905.34;5068746;28;20286;-70
2023/06/15 11:51:37;;;;;;;;;;;;;;;22.99;39.50;95897.22;5067406;28;19925;-70
2023/06/15 11:54:07;;;;;;;;;;;;;;;22.94;38.57;95902.97;5069471;28;20015;-69
2023/06/15 11:56:35;;;;;;;;;;;;;;;23.00;37.55;95904.13;5066876;28;19931;-69
2023/06/15 11:59:03;;;;;;;;;;;;;;;22.92;37.82;95910.25;5065481;28;20437;-69
2023/06/15 12:01:29;;;;;;;;;;;;;;;23.45;39.06;95912.38;5062682;28;19978;-69
2023/06/15 12:03:55;;;;;;;;;;;;;;;22.88;36.16;95901.00;5062874;28;19924;-69
2023/06/15 12:06:22;;;;;;;;;;;;;;;23.15;36.03;95899.78;5061893;28;19932;-69
2023/06/15 12:08:51;;;;;;;;;;;;;;;23.44;38.86;95900.97;5062467;28;19995;-69
2023/06/15 12:11:21;;;;;;;;;;;;;;;23.71;36.81;95891.78;5063684;28;20425;-70
2023/06/15 12:13:49;;;;;;;;;;;;;;;24.21;39.84;95903.63;5058407;28;19928;-69
2023/06/15 12:16:15;;;;;;;;;;;;;;;24.07;39.32;95904.44;5068278;28;20002;-69
2023/06/15 12:18:41;;;;;;;;;;;;;;;23.73;35.70;95905.66;5070007;28;19928;-70
2023/06/15 12:21:07;;;;;;;;;;;;;;;23.91;37.52;95892.94;5067722;28;19928;-70
2023/06/15 12:23:34;;;;;;;;;;;;;;;23.76;36.00;95886.78;5069490;28;19924;-70
2023/06/15 12:26:01;;;;;;;;;;;;;;;23.59;35.27;95893.16;5068158;28;19929;-70
2023/06/15 12:28:28;;;;;;;;;;;;;;;23.73;37.30;95891.59;5064690;28;19932;-70
2023/06/15 12:31:02;;;;;;;;;;;;;;;23.50;36.57;95883.59;5070181;28;20374;-70
2023/06/15 12:33:30;;;;;;;;;;;;;;;23.26;36.53;95880.09;5067503;28;19935;-70
2023/06/15 12:35:56;;;;;;;;;;;;;;;23.50;38.82;95881.78;5069583;28;19978;-69
2023/06/15 12:38:23;;;;;;;;;;;;;;;23.46;37.22;95883.13;5067548;28;19936;-70
2023/06/15 12:40:50;;;;;;;;;;;;;;;23.71;37.10;95877.72;5070127;28;19928;-69
2023/06/15 12:43:17;;;;;;;;;;;;;;;23.51;35.82;95870.22;5069524;28;19931;-69